Time;durP1;ratioP1;P1;durP2;ratioP2;P2;SDS_P1;SDS_P2;PMS_P1;PMS_P2;Temp;Humidity;BMP_temperature;BMP_pressure;BME280_temperature;BME280_humidity;BME280_pressure;Samples;Min_cycle;Max_cycle;Signal;HPM_P1;HPM_P2
2023/07/16 00:00:33;;;;;;;1.23;1.23;;;;;;;24.03;70.38;95159.00;4357180;32;20207;-62
2023/07/16 00:02:58;;;;;;;2.23;1.33;;;;;;;24.04;71.02;95148.94;4338702;32;20237;-62
2023/07/16 00:05:24;;;;;;;1.57;1.47;;;;;;;23.92;72.36;95169.03;4342620;32;20213;-63
2023/07/16 00:07:49;;;;;;;1.53;1.50;;;;;;;23.89;72.38;95167.09;4352140;32;20193;-62
2023/07/16 00:10:14;;;;;;;0.70;0.70;;;;;;;23.79;73.50;95165.12;4359035;32;20216;-62
2023/07/16 00:12:40;;;;;;;1.60;1.50;;;;;;;23.80;73.83;95170.16;4358731;32;20237;-62
2023/07/16 00:15:06;;;;;;;1.00;1.00;;;;;;;23.64;74.00;95175.13;4345268;32;20193;-62
2023/07/16 00:17:33;;;;;;;1.27;1.20;;;;;;;23.63;75.21;95179.00;4349643;32;20238;-62
2023/07/16 00:19:58;;;;;;;1.20;1.20;;;;;;;23.51;75.82;95171.16;4341168;32;20185;-62
2023/07/16 00:22:26;;;;;;;1.30;1.23;;;;;;;23.58;74.78;95179.34;4351758;32;20194;-62
2023/07/16 00:24:52;;;;;;;3.10;1.10;;;;;;;23.52;75.94;95183.56;4353470;32;20198;-63
2023/07/16 00:27:17;;;;;;;1.20;1.20;;;;;;;23.49;75.95;95176.16;4341902;32;20259;-62
2023/07/16 00:29:43;;;;;;;0.93;0.93;;;;;;;23.43;76.50;95191.25;4338698;32;20219;-62
2023/07/16 00:32:08;;;;;;;3.07;0.83;;;;;;;23.46;76.47;95191.28;4351295;32;20197;-62
2023/07/16 00:34:33;;;;;;;0.83;0.83;;;;;;;23.42;77.08;95189.69;4347687;32;20250;-62
2023/07/16 00:37:01;;;;;;;0.90;0.90;;;;;;;23.29;77.84;95187.28;4352895;32;20197;-62
2023/07/16 00:39:30;;;;;;;1.33;1.33;;;;;;;23.28;77.94;95195.78;4340323;32;20205;-62
2023/07/16 00:41:55;;;;;;;1.60;1.50;;;;;;;23.27;77.87;95205.09;4351917;32;20248;-62
2023/07/16 00:44:21;;;;;;;1.10;1.10;;;;;;;23.31;77.59;95206.63;4341541;32;20271;-62
2023/07/16 00:46:46;;;;;;;0.73;0.73;;;;;;;23.30;77.72;95210.50;4346179;32;20217;-62
2023/07/16 00:49:12;;;;;;;2.13;1.27;;;;;;;23.31;77.69;95233.72;4334838;32;20197;-62
2023/07/16 00:51:37;;;;;;;0.43;0.43;;;;;;;23.27;78.09;95243.00;4338943;32;20201;-62
2023/07/16 00:54:03;;;;;;;2.70;2.50;;;;;;;23.34;77.40;95263.91;4343792;32;20189;-63
2023/07/16 00:56:29;;;;;;;0.93;0.93;;;;;;;23.35;77.64;95289.84;4347111;32;20232;-62
2023/07/16 00:58:54;;;;;;;0.80;0.80;;;;;;;23.35;77.88;95308.78;4335154;32;20201;-62
2023/07/16 01:01:20;;;;;;;0.77;0.77;;;;;;;23.37;77.89;95311.91;4344843;32;20202;-62
2023/07/16 01:03:45;;;;;;;1.00;1.00;;;;;;;23.30;78.38;95328.84;4343949;32;20197;-62
2023/07/16 01:06:20;;;;;;;1.00;1.00;;;;;;;23.34;78.08;95337.00;4341296;32;20231;-62
2023/07/16 01:09:01;;;;;;;20.73;1.50;;;;;;;23.37;77.89;95345.16;4342604;32;20188;-63
2023/07/16 01:11:27;;;;;;;1.73;1.63;;;;;;;23.27;78.76;95359.41;4330123;32;20213;-62
2023/07/16 01:13:53;;;;;;;1.20;1.10;;;;;;;23.25;78.79;95377.97;4355588;32;20219;-62
2023/07/16 01:16:23;;;;;;;0.80;0.80;;;;;;;23.24;79.27;95374.47;4346623;32;20201;-62
2023/07/16 01:18:49;;;;;;;7.47;2.23;;;;;;;23.19;79.98;95409.22;4340379;32;20255;-62
2023/07/16 01:21:18;;;;;;;1.03;1.03;;;;;;;23.21;79.33;95396.87;4359333;32;20225;-62
2023/07/16 01:24:01;;;;;;;1.20;0.97;;;;;;;23.13;79.69;95400.66;4352114;32;20245;-62
2023/07/16 01:27:04;;;;;;;1.10;1.10;;;;;;;23.07;80.41;95396.72;4354294;32;20240;-62
2023/07/16 01:29:34;;;;;;;1.03;1.03;;;;;;;23.06;80.92;95397.09;4360723;32;20201;-66
2023/07/16 01:32:02;;;;;;;0.50;0.50;;;;;;;23.15;79.96;95409.19;4346410;32;20212;-64
2023/07/16 01:34:30;;;;;;;1.80;1.70;;;;;;;23.17;80.22;95395.28;4353516;32;20189;-64
2023/07/16 01:36:56;;;;;;;1.00;1.00;;;;;;;23.09;80.38;95413.34;4353306;32;20411;-64
2023/07/16 01:39:21;;;;;;;1.00;1.00;;;;;;;23.17;80.19;95414.22;4339372;32;20241;-65
2023/07/16 01:41:46;;;;;;;0.90;0.90;;;;;;;23.10;80.51;95423.03;4359203;32;20255;-64
2023/07/16 01:44:12;;;;;;;0.90;0.90;;;;;;;23.01;81.11;95424.50;4359552;32;20238;-64
2023/07/16 01:46:38;;;;;;;0.97;0.97;;;;;;;23.02;80.97;95429.53;4347891;32;20233;-64
2023/07/16 01:49:04;;;;;;;1.27;1.27;;;;;;;22.93;81.75;95418.22;4334893;32;20193;-64
2023/07/16 01:51:29;;;;;;;0.80;0.80;;;;;;;22.94;81.90;95419.78;4359788;32;20249;-64
2023/07/16 01:53:54;;;;;;;1.37;1.37;;;;;;;22.97;81.77;95419.03;4358460;32;20200;-64
2023/07/16 01:56:20;;;;;;;1.20;1.10;;;;;;;22.98;81.71;95417.91;4353206;32;20196;-65
2023/07/16 01:58:45;;;;;;;2.33;1.60;;;;;;;22.95;81.84;95411.28;4358160;32;20212;-64
2023/07/16 02:01:10;;;;;;;4.43;1.73;;;;;;;22.92;82.10;95427.47;4350595;32;20185;-64
2023/07/16 02:03:36;;;;;;;1.17;1.17;;;;;;;22.96;81.88;95429.09;4345412;32;20189;-63
2023/07/16 02:06:01;;;;;;;2.97;1.80;;;;;;;22.94;82.40;95431.38;4344616;32;20233;-64
2023/07/16 02:08:26;;;;;;;0.90;0.90;;;;;;;23.05;81.56;95436.94;4349828;32;20207;-64
2023/07/16 02:10:52;;;;;;;1.17;1.17;;;;;;;23.03;82.09;95430.31;4349500;32;20211;-64
2023/07/16 02:13:17;;;;;;;5.33;2.40;;;;;;;22.95;82.63;95438.34;4348570;32;20257;-64
2023/07/16 02:15:43;;;;;;;1.07;1.07;;;;;;;22.95;82.64;95432.16;4346126;32;20239;-64
2023/07/16 02:18:08;;;;;;;1.20;1.20;;;;;;;23.00;82.07;95434.53;4355463;32;20227;-64
2023/07/16 02:20:33;;;;;;;2.03;1.43;;;;;;;22.91;83.12;95436.75;4345775;32;20194;-64
2023/07/16 02:22:59;;;;;;;1.30;1.23;;;;;;;22.92;83.03;95449.91;4345124;32;20207;-64
2023/07/16 02:25:25;;;;;;;1.07;1.07;;;;;;;22.98;82.64;95450.37;4347194;32;20199;-65
2023/07/16 02:27:50;;;;;;;2.00;1.30;;;;;;;22.98;82.60;95441.47;4340408;32;20205;-64
2023/07/16 02:30:16;;;;;;;1.53;1.43;;;;;;;23.01;82.01;95446.16;4340827;32;20185;-64
2023/07/16 02:32:41;;;;;;;1.37;0.87;;;;;;;23.04;82.13;95443.50;4356734;32;20190;-64
2023/07/16 02:35:07;;;;;;;0.67;0.67;;;;;;;23.04;82.24;95438.06;4350468;32;20295;-64
2023/07/16 02:37:33;;;;;;;1.37;1.33;;;;;;;23.02;82.28;95429.53;4346599;32;20257;-65
2023/07/16 02:39:59;;;;;;;0.60;0.60;;;;;;;22.99;82.61;95438.41;4354530;32;20189;-64
2023/07/16 02:42:24;;;;;;;2.20;2.10;;;;;;;22.98;82.64;95450.37;4345030;32;20196;-64
2023/07/16 02:44:49;;;;;;;1.07;1.07;;;;;;;22.88;83.26;95453.72;4339460;32;20197;-64
2023/07/16 02:47:15;;;;;;;0.80;0.80;;;;;;;22.97;82.77;95456.94;4342118;32;20189;-64
2023/07/16 02:49:40;;;;;;;1.10;1.10;;;;;;;23.08;81.69;95462.44;4349729;32;20190;-64
2023/07/16 02:52:06;;;;;;;1.77;1.70;;;;;;;23.06;81.92;95465.56;4348051;32;20196;-65
2023/07/16 02:54:31;;;;;;;1.20;1.20;;;;;;;23.03;82.51;95471.69;4360645;32;20214;-64
2023/07/16 02:56:57;;;;;;;1.30;1.03;;;;;;;23.12;80.93;95476.81;4345327;32;20204;-64
2023/07/16 02:59:23;;;;;;;1.93;1.73;;;;;;;23.15;80.79;95470.66;4347395;32;20192;-64
2023/07/16 03:01:48;;;;;;;0.93;0.93;;;;;;;23.18;80.94;95464.50;4354975;32;20193;-65
2023/07/16 03:04:13;;;;;;;1.20;1.20;;;;;;;23.22;80.68;95468.81;4350583;32;20197;-64
2023/07/16 03:06:38;;;;;;;0.73;0.73;;;;;;;23.22;80.60;95466.13;4345140;32;20216;-64
2023/07/16 03:09:04;;;;;;;1.10;1.10;;;;;;;23.14;80.98;95482.63;4343435;32;20185;-64
2023/07/16 03:11:29;;;;;;;1.37;1.00;;;;;;;23.03;81.30;95474.41;4336831;32;20205;-64
2023/07/16 03:13:54;;;;;;;0.70;0.70;;;;;;;23.03;81.24;95476.34;4353055;32;20200;-64
2023/07/16 03:16:20;;;;;;;0.90;0.90;;;;;;;23.00;81.39;95477.84;4344639;32;20251;-64
2023/07/16 03:18:45;;;;;;;0.73;0.73;;;;;;;23.05;80.84;95474.81;4351899;32;20185;-64
2023/07/16 03:21:11;;;;;;;1.30;1.30;;;;;;;23.05;80.72;95477.53;4358884;32;20253;-64
2023/07/16 03:23:36;;;;;;;0.70;0.70;;;;;;;23.02;80.36;95478.25;4335974;32;20192;-64
2023/07/16 03:26:02;;;;;;;1.37;1.33;;;;;;;22.92;81.00;95473.50;4342461;32;20216;-64
2023/07/16 03:28:27;;;;;;;0.93;0.93;;;;;;;23.01;80.21;95476.69;4338667;32;20185;-64
2023/07/16 03:30:53;;;;;;;0.53;0.53;;;;;;;23.00;80.47;95479.78;4346232;32;20235;-64
2023/07/16 03:33:19;;;;;;;1.00;0.97;;;;;;;23.03;80.35;95485.25;4345744;32;20205;-65
2023/07/16 03:35:46;;;;;;;0.50;0.50;;;;;;;23.10;80.22;95493.41;4346459;32;20201;-64
2023/07/16 03:38:11;;;;;;;0.87;0.67;;;;;;;23.05;80.43;95491.06;4338776;32;20197;-64
2023/07/16 03:40:37;;;;;;;0.87;0.77;;;;;;;23.09;80.35;95501.91;4346436;32;20185;-63
2023/07/16 03:43:03;;;;;;;0.73;0.63;;;;;;;23.01;80.86;95505.69;4344734;32;20205;-64
2023/07/16 03:45:28;;;;;;;0.67;0.67;;;;;;;22.96;81.35;95509.50;4352511;32;20250;-64
2023/07/16 03:47:53;;;;;;;0.57;0.57;;;;;;;23.00;80.98;95510.31;4353526;32;20243;-64
2023/07/16 03:50:19;;;;;;;1.13;0.90;;;;;;;22.97;81.16;95521.88;4350902;32;20229;-64
2023/07/16 03:52:44;;;;;;;1.23;1.00;;;;;;;22.90;81.13;95516.38;4348194;32;20280;-64
2023/07/16 03:55:10;;;;;;;0.80;0.80;;;;;;;22.89;81.12;95520.22;4350116;32;20249;-64
2023/07/16 03:57:35;;;;;;;1.57;1.37;;;;;;;22.89;81.45;95521.00;4338390;32;20225;-64
2023/07/16 04:00:04;;;;;;;0.93;0.93;;;;;;;22.94;80.87;95515.28;4337473;32;20252;-64
2023/07/16 04:02:29;;;;;;;0.50;0.50;;;;;;;22.83;81.52;95510.88;4345096;32;20232;-64
2023/07/16 04:04:54;;;;;;;0.57;0.57;;;;;;;22.88;81.06;95508.62;4355753;32;20211;-64
2023/07/16 04:07:20;;;;;;;0.80;0.80;;;;;;;22.79;81.61;95516.25;4351482;32;20202;-64
2023/07/16 04:09:45;;;;;;;1.07;1.07;;;;;;;22.73;81.81;95516.88;4340982;32;20198;-64
2023/07/16 04:12:10;;;;;;;1.33;1.33;;;;;;;22.75;81.44;95522.72;4336711;32;20207;-64
2023/07/16 04:14:35;;;;;;;0.30;0.30;;;;;;;22.82;81.41;95537.16;4356243;32;20221;-65
2023/07/16 04:17:01;;;;;;;0.93;0.93;;;;;;;22.81;81.53;95542.94;4355584;32;20242;-64
2023/07/16 04:19:26;;;;;;;0.30;0.30;;;;;;;22.82;81.65;95541.78;4345083;32;20197;-64
2023/07/16 04:21:51;;;;;;;0.63;0.30;;;;;;;22.78;81.84;95551.78;4355875;32;20215;-64
2023/07/16 04:24:17;;;;;;;0.80;0.80;;;;;;;22.82;82.41;95553.41;4353831;32;20243;-64
2023/07/16 04:26:42;;;;;;;0.60;0.60;;;;;;;22.67;85.13;95567.81;4342796;32;20223;-64
2023/07/16 04:29:07;;;;;;;0.80;0.80;;;;;;;22.61;86.83;95575.47;4344897;32;20367;-64
2023/07/16 04:31:32;;;;;;;0.47;0.47;;;;;;;22.54;87.63;95583.47;4347344;32;20211;-64
2023/07/16 04:33:58;;;;;;;0.83;0.83;;;;;;;22.34;88.66;95592.81;4358440;32;20208;-64
2023/07/16 04:36:23;;;;;;;0.67;0.67;;;;;;;22.36;88.82;95593.25;4356517;32;20200;-64
2023/07/16 04:38:48;;;;;;;1.47;1.03;;;;;;;22.42;88.46;95586.41;4339283;32;20274;-64
2023/07/16 04:41:14;;;;;;;0.40;0.40;;;;;;;22.32;88.70;95584.28;4352234;32;20240;-64
2023/07/16 04:43:40;;;;;;;0.20;0.20;;;;;;;22.26;88.69;95580.31;4338482;32;20212;-64
2023/07/16 04:46:05;;;;;;;0.53;0.53;;;;;;;22.16;89.87;95586.34;4343199;32;20188;-64
2023/07/16 04:48:30;;;;;;;0.50;0.50;;;;;;;22.15;88.15;95584.78;4343939;32;20188;-66
2023/07/16 04:50:56;;;;;;;1.00;1.00;;;;;;;22.21;87.39;95586.06;4351793;32;20287;-64
2023/07/16 04:53:24;;;;;;;0.40;0.40;;;;;;;22.03;90.15;95587.69;4338084;32;20209;-64
2023/07/16 04:55:49;;;;;;;0.30;0.30;;;;;;;21.93;90.39;95595.19;4358319;32;20222;-64
2023/07/16 04:58:15;;;;;;;0.43;0.43;;;;;;;22.02;89.34;95602.31;4343500;32;20193;-64
2023/07/16 05:00:41;;;;;;;0.40;0.40;;;;;;;22.15;87.88;95598.28;4355341;32;20193;-64
2023/07/16 05:03:06;;;;;;;0.20;0.20;;;;;;;21.98;90.23;95596.03;4343700;32;20197;-62
2023/07/16 05:05:31;;;;;;;0.70;0.70;;;;;;;22.00;90.32;95597.28;4345533;32;20181;-64
2023/07/16 05:07:57;;;;;;;0.50;0.50;;;;;;;22.10;89.29;95585.06;4360226;32;20188;-64
2023/07/16 05:10:22;;;;;;;0.50;0.50;;;;;;;22.26;88.44;95580.31;4352962;32;20197;-64
2023/07/16 05:12:47;;;;;;;0.20;0.20;;;;;;;22.07;90.52;95578.47;4346148;32;20241;-64
2023/07/16 05:15:13;;;;;;;0.60;0.60;;;;;;;21.89;92.41;95583.53;4354140;32;20204;-64
2023/07/16 05:17:38;;;;;;;4.03;0.87;;;;;;;22.03;91.02;95582.28;4357863;32;20240;-64
2023/07/16 05:20:05;;;;;;;1.40;1.30;;;;;;;22.17;89.94;95587.91;4341538;32;20189;-64
2023/07/16 05:22:30;;;;;;;0.10;0.10;;;;;;;22.35;88.65;95585.50;4348769;32;20204;-64
2023/07/16 05:24:55;;;;;;;0.80;0.80;;;;;;;22.29;88.91;95593.13;4343372;32;20307;-64
2023/07/16 05:27:21;;;;;;;0.47;0.47;;;;;;;22.27;90.09;95581.88;4350985;32;20204;-64
2023/07/16 05:29:47;;;;;;;0.10;0.10;;;;;;;22.15;91.42;95590.97;4334748;32;20264;-64
2023/07/16 05:32:13;;;;;;;0.33;0.33;;;;;;;22.27;90.53;95593.47;4334518;32;20195;-64
2023/07/16 05:34:38;;;;;;;0.53;0.53;;;;;;;22.37;89.72;95592.09;4350118;32;20193;-63
2023/07/16 05:37:04;;;;;;;0.77;0.40;;;;;;;22.39;89.49;95589.81;4351746;32;20312;-64
2023/07/16 05:39:30;;;;;;;0.33;0.33;;;;;;;22.44;89.06;95591.44;4334616;32;20212;-64
2023/07/16 05:41:55;;;;;;;0.20;0.20;;;;;;;22.44;88.54;95592.22;4340308;32;20205;-64
2023/07/16 05:44:20;;;;;;;0.33;0.33;;;;;;;22.49;88.31;95591.12;4342023;32;20193;-64
2023/07/16 05:46:46;;;;;;;0.20;0.20;;;;;;;22.44;89.52;95605.75;4348825;32;20233;-64
2023/07/16 05:49:11;;;;;;;3.00;0.60;;;;;;;22.44;89.63;95608.44;4355179;32;20212;-64
2023/07/16 05:51:36;;;;;;;0.60;0.60;;;;;;;22.44;89.15;95611.16;4342526;32;20217;-64
2023/07/16 05:54:02;;;;;;;1.50;0.43;;;;;;;22.40;89.67;95604.91;4345009;32;20194;-64
2023/07/16 05:56:30;;;;;;;2.17;0.37;;;;;;;22.50;88.79;95617.78;4340505;32;20193;-64
2023/07/16 05:58:56;;;;;;;4.33;0.93;;;;;;;22.54;88.75;95623.28;4352565;32;20271;-64
2023/07/16 06:01:22;;;;;;;0.27;0.27;;;;;;;22.60;88.30;95624.53;4354167;32;20197;-64
2023/07/16 06:03:47;;;;;;;0.40;0.40;;;;;;;22.64;87.79;95636.19;4350317;32;20228;-64
2023/07/16 06:06:12;;;;;;;0.40;0.40;;;;;;;22.53;89.62;95638.72;4348797;32;20196;-64
2023/07/16 06:08:38;;;;;;;0.10;0.10;;;;;;;22.52;89.67;95637.16;4344032;32;20235;-64
2023/07/16 06:11:03;;;;;;;1.43;0.83;;;;;;;22.47;91.03;95642.84;4347547;32;20241;-64
2023/07/16 06:13:29;;;;;;;0.10;0.10;;;;;;;22.52;89.13;95639.06;4345696;32;20180;-64
2023/07/16 06:15:54;;;;;;;4.43;0.40;;;;;;;22.70;87.57;95647.47;4334497;32;20216;-64
2023/07/16 06:18:20;;;;;;;0.40;0.40;;;;;;;22.57;89.45;95634.16;4349107;32;20247;-65
2023/07/16 06:20:45;;;;;;;2.63;0.60;;;;;;;22.70;87.08;95634.72;4338890;32;20231;-64
2023/07/16 06:23:12;;;;;;;0.40;0.40;;;;;;;22.81;84.83;95651.16;4355335;32;20197;-64
2023/07/16 06:25:37;;;;;;;0.20;0.20;;;;;;;22.97;85.22;95649.09;4345950;32;20232;-64
2023/07/16 06:28:04;;;;;;;0.50;0.50;;;;;;;23.01;86.65;95657.25;4350369;32;20192;-65
2023/07/16 06:30:32;;;;;;;0.53;0.53;;;;;;;22.98;85.08;95656.06;4348263;32;20189;-65
2023/07/16 06:32:57;;;;;;;0.33;0.33;;;;;;;22.58;90.02;95651.94;4347092;32;20336;-64
2023/07/16 06:35:22;;;;;;;0.50;0.50;;;;;;;22.51;90.94;95659.16;4337546;32;20198;-64
2023/07/16 06:37:48;;;;;;;0.37;0.37;;;;;;;22.55;89.22;95663.47;4354142;32;20240;-64
2023/07/16 06:40:13;;;;;;;0.40;0.40;;;;;;;22.47;91.04;95653.66;4340993;32;20197;-64
2023/07/16 06:42:39;;;;;;;0.67;0.67;;;;;;;22.59;88.10;95660.84;4338710;32;20212;-64
2023/07/16 06:45:04;;;;;;;0.20;0.20;;;;;;;22.58;89.37;95657.34;4349545;32;20216;-64
2023/07/16 06:47:30;;;;;;;0.53;0.53;;;;;;;22.81;87.18;95659.28;4356790;32;20204;-64
2023/07/16 06:49:55;;;;;;;0.27;0.27;;;;;;;22.84;87.43;95655.84;4342452;32;20181;-64
2023/07/16 06:52:22;;;;;;;0.53;0.53;;;;;;;22.86;87.05;95654.31;4359054;32;20236;-64
2023/07/16 06:54:47;;;;;;;0.53;0.53;;;;;;;22.94;87.81;95663.34;4350160;32;20185;-64
2023/07/16 06:57:13;;;;;;;0.50;0.50;;;;;;;23.07;85.86;95648.44;4354697;32;20192;-64
2023/07/16 06:59:38;;;;;;;1.13;1.03;;;;;;;23.14;86.65;95651.25;4348925;32;20236;-64
2023/07/16 07:02:04;;;;;;;0.60;0.60;;;;;;;23.24;84.40;95661.47;4360850;32;20193;-64
2023/07/16 07:04:29;;;;;;;1.10;1.00;;;;;;;23.29;84.71;95669.25;4341895;32;20227;-64
2023/07/16 07:06:55;;;;;;;0.40;0.40;;;;;;;23.14;88.33;95664.78;4342586;32;20197;-64
2023/07/16 07:09:20;;;;;;;0.57;0.57;;;;;;;23.30;83.42;95659.97;4341933;32;20197;-64
2023/07/16 07:11:45;;;;;;;1.20;1.10;;;;;;;23.19;86.29;95659.06;4342639;32;20201;-64
2023/07/16 07:14:10;;;;;;;0.77;0.77;;;;;;;22.90;86.59;95663.28;4342778;32;20247;-64
2023/07/16 07:16:36;;;;;;;0.50;0.50;;;;;;;22.87;86.58;95666.72;4342528;32;20197;-65
2023/07/16 07:19:02;;;;;;;0.50;0.43;;;;;;;23.09;84.99;95670.50;4358612;32;20216;-65
2023/07/16 07:21:27;;;;;;;0.80;0.70;;;;;;;23.18;83.12;95665.63;4344868;32;20201;-64
2023/07/16 07:23:53;;;;;;;0.70;0.70;;;;;;;23.06;83.22;95665.06;4358753;32;20201;-64
2023/07/16 07:26:18;;;;;;;0.57;0.43;;;;;;;23.19;82.68;95664.47;4350473;32;20273;-65
2023/07/16 07:28:43;;;;;;;0.87;0.77;;;;;;;23.21;82.06;95664.91;4345816;32;20204;-64
2023/07/16 07:31:09;;;;;;;0.30;0.30;;;;;;;23.22;81.93;95662.97;4355522;32;20185;-64
2023/07/16 07:33:34;;;;;;;0.37;0.37;;;;;;;23.10;82.03;95663.97;4354279;32;20207;-64
2023/07/16 07:35:59;;;;;;;0.30;0.30;;;;;;;23.04;81.39;95667.38;4353929;32;20227;-65
2023/07/16 07:38:25;;;;;;;0.33;0.33;;;;;;;22.93;82.25;95664.47;4345134;32;20257;-65
2023/07/16 07:40:50;;;;;;;4.37;0.87;;;;;;;23.02;82.02;95669.66;4339791;32;20205;-64
2023/07/16 07:43:15;;;;;;;0.70;0.70;;;;;;;22.92;80.44;95668.34;4348371;32;20203;-64
2023/07/16 07:45:41;;;;;;;0.63;0.50;;;;;;;22.83;81.52;95663.19;4339740;32;20189;-64
2023/07/16 07:48:06;;;;;;;1.07;0.80;;;;;;;23.00;81.45;95661.91;4343791;32;20193;-64
2023/07/16 07:50:31;;;;;;;0.20;0.20;;;;;;;22.94;80.83;95668.75;4345933;32;20201;-64
2023/07/16 07:52:57;;;;;;;0.13;0.13;;;;;;;22.92;80.46;95665.63;4360145;32;20185;-64
2023/07/16 07:55:22;;;;;;;0.67;0.67;;;;;;;22.89;80.98;95661.72;4342726;32;20250;-64
2023/07/16 07:57:47;;;;;;;0.30;0.30;;;;;;;22.93;81.20;95659.06;4355507;32;20224;-64
2023/07/16 08:00:13;;;;;;;9.47;0.60;;;;;;;23.03;80.60;95660.38;4344892;32;20189;-64
2023/07/16 08:02:38;;;;;;;0.40;0.40;;;;;;;23.08;79.93;95655.41;4344248;32;20233;-64
2023/07/16 08:05:04;;;;;;;0.23;0.23;;;;;;;23.10;80.22;95650.41;4351151;32;20205;-64
2023/07/16 08:07:30;;;;;;;0.57;0.57;;;;;;;23.19;79.48;95658.28;4338442;32;20237;-66
2023/07/16 08:09:55;;;;;;;0.23;0.23;;;;;;;23.23;79.41;95653.72;4336113;32;20208;-64
2023/07/16 08:12:20;;;;;;;0.40;0.40;;;;;;;23.31;78.45;95652.62;4336412;32;20197;-64
2023/07/16 08:14:48;;;;;;;0.27;0.27;;;;;;;23.31;78.73;95648.00;4336393;32;20246;-64
2023/07/16 08:17:13;;;;;;;0.43;0.43;;;;;;;23.40;78.35;95653.16;4347261;32;20205;-64
2023/07/16 08:19:38;;;;;;;0.47;0.47;;;;;;;23.41;77.21;95643.09;4341220;32;20228;-64
2023/07/16 08:22:04;;;;;;;0.10;0.10;;;;;;;23.31;79.21;95639.88;4352856;32;20189;-64
2023/07/16 08:24:30;;;;;;;0.30;0.30;;;;;;;23.28;78.33;95632.50;4343815;32;20193;-64
2023/07/16 08:26:55;;;;;;;0.33;0.30;;;;;;;23.15;77.78;95630.38;4353462;32;20217;-65
2023/07/16 08:29:20;;;;;;;0.10;0.10;;;;;;;23.18;77.31;95632.34;4335808;32;20182;-64
2023/07/16 08:31:45;;;;;;;0.30;0.30;;;;;;;23.05;76.60;95634.53;4354870;32;20209;-64
2023/07/16 08:34:11;;;;;;;0.20;0.20;;;;;;;23.06;76.90;95632.59;4352977;32;20292;-64
2023/07/16 08:36:37;;;;;;;0.63;0.63;;;;;;;23.02;74.21;95632.53;4352113;32;20201;-64
2023/07/16 08:39:02;;;;;;;0.40;0.40;;;;;;;23.22;74.91;95633.19;4352438;32;20254;-64
2023/07/16 08:41:28;;;;;;;1.03;0.90;;;;;;;23.18;75.48;95635.06;4356332;32;20221;-64
2023/07/16 08:43:54;;;;;;;0.20;0.20;;;;;;;23.11;76.52;95633.03;4349346;32;20232;-64
2023/07/16 08:46:19;;;;;;;0.43;0.43;;;;;;;23.23;75.24;95627.41;4341605;32;20188;-64
2023/07/16 08:48:45;;;;;;;1.17;0.57;;;;;;;23.26;75.89;95634.03;4349802;32;20181;-64
2023/07/16 08:51:14;;;;;;;3.60;1.17;;;;;;;23.27;76.19;95627.47;4350869;32;20200;-64
2023/07/16 08:53:40;;;;;;;2.90;2.67;;;;;;;23.44;77.76;95626.13;4352671;32;20259;-64
2023/07/16 08:56:06;;;;;;;3.40;1.10;;;;;;;23.54;76.58;95626.28;4348028;32;20198;-64
2023/07/16 08:58:31;;;;;;;6.00;1.73;;;;;;;23.69;75.26;95621.81;4352213;32;20263;-64
2023/07/16 09:00:59;;;;;;;0.30;0.30;;;;;;;23.74;74.83;95621.47;4330247;32;20313;-65
2023/07/16 09:03:24;;;;;;;0.50;0.50;;;;;;;23.90;73.17;95622.03;4355599;32;20188;-64
2023/07/16 09:05:49;;;;;;;0.33;0.33;;;;;;;23.93;73.36;95617.78;4346466;32;20200;-64
2023/07/16 09:08:15;;;;;;;0.30;0.30;;;;;;;23.80;75.11;95620.00;4343071;32;20209;-64
2023/07/16 09:10:41;;;;;;;0.33;0.33;;;;;;;23.51;75.58;95626.97;4337537;32;20220;-64
2023/07/16 09:13:06;;;;;;;0.20;0.17;;;;;;;23.52;72.23;95627.78;4342933;32;20201;-65
2023/07/16 09:15:33;;;;;;;0.10;0.10;;;;;;;23.32;71.79;95627.13;4344221;32;20254;-64
2023/07/16 09:17:59;;;;;;;0.20;0.20;;;;;;;23.38;72.88;95605.94;4353162;32;20298;-64
2023/07/16 09:20:25;;;;;;;0.20;0.20;;;;;;;23.02;72.83;95610.87;4355738;32;20201;-65
2023/07/16 09:22:55;;;;;;;0.20;0.20;;;;;;;22.96;72.91;95601.50;4340455;32;20185;-64
2023/07/16 09:25:28;;;;;;;0.40;0.40;;;;;;;23.02;75.51;95610.09;4356633;32;20224;-65
2023/07/16 09:27:54;;;;;;;0.53;0.53;;;;;;;23.06;73.78;95611.72;4342696;32;20201;-64
2023/07/16 09:30:19;;;;;;;0.17;0.17;;;;;;;23.15;74.62;95604.09;4354019;32;20254;-65
2023/07/16 09:32:46;;;;;;;0.83;0.83;;;;;;;23.18;74.75;95608.00;4347223;32;20220;-64
2023/07/16 09:35:13;;;;;;;0.40;0.40;;;;;;;23.20;74.10;95606.47;4339529;32;20194;-64
2023/07/16 09:37:39;;;;;;;0.10;0.10;;;;;;;23.21;70.26;95596.44;4351646;32;20258;-64
2023/07/16 09:40:08;;;;;;;0.50;0.50;;;;;;;23.16;71.25;95610.28;4342310;32;20236;-64
2023/07/16 09:42:37;;;;;;;0.33;0.33;;;;;;;23.36;73.28;95594.69;4355328;32;20207;-64
2023/07/16 09:45:03;;;;;;;0.20;0.20;;;;;;;23.54;72.78;95593.78;4342796;32;20201;-64
2023/07/16 09:47:28;;;;;;;0.30;0.30;;;;;;;23.59;70.84;95588.03;4339767;32;20197;-65
2023/07/16 09:49:53;;;;;;;0.10;0.10;;;;;;;23.45;70.19;95576.22;4353639;32;20235;-64
2023/07/16 09:52:20;;;;;;;11.93;0.80;;;;;;;23.73;72.59;95584.69;4353154;32;20227;-65
2023/07/16 09:54:46;;;;;;;0.73;0.73;;;;;;;23.74;70.85;95578.13;4338019;32;20189;-64
2023/07/16 09:57:14;;;;;;;0.57;0.57;;;;;;;23.58;71.07;95572.16;4349690;32;20239;-64
2023/07/16 09:59:40;;;;;;;0.20;0.20;;;;;;;23.39;71.80;95569.56;4348773;32;20249;-64
2023/07/16 10:02:07;;;;;;;0.50;0.50;;;;;;;23.46;72.14;95581.28;4353627;32;20211;-64
2023/07/16 10:04:40;;;;;;;0.40;0.40;;;;;;;23.56;68.65;95579.84;4356321;32;20193;-64
2023/07/16 10:07:05;;;;;;;0.77;0.37;;;;;;;23.69;69.35;95578.47;4338645;32;20252;-64
2023/07/16 10:09:35;;;;;;;0.47;0.47;;;;;;;23.85;69.76;95580.94;4348388;32;20189;-64
2023/07/16 10:12:18;;;;;;;0.40;0.40;;;;;;;23.98;69.35;95576.81;4355509;32;20276;-64
2023/07/16 10:14:48;;;;;;;0.20;0.20;;;;;;;24.02;68.62;95574.13;4350590;32;20193;-64
2023/07/16 10:17:21;;;;;;;0.20;0.20;;;;;;;23.90;65.23;95575.94;4357886;32;20185;-64
2023/07/16 10:19:50;;;;;;;2.17;2.07;;;;;;;23.93;64.86;95571.72;4351554;32;20189;-64
2023/07/16 10:22:15;;;;;;;0.67;0.67;;;;;;;23.87;64.34;95573.22;4359801;32;20200;-64
2023/07/16 10:24:41;;;;;;;0.63;0.63;;;;;;;23.97;66.35;95575.25;4349852;32;20208;-64
2023/07/16 10:27:07;;;;;;;0.40;0.40;;;;;;;24.06;66.97;95569.53;4350489;32;20222;-65
2023/07/16 10:29:32;;;;;;;0.23;0.23;;;;;;;24.15;67.70;95570.75;4350667;32;20344;-65
2023/07/16 10:32:02;;;;;;;2.43;2.03;;;;;;;24.18;67.61;95569.25;4341216;32;20208;-64
2023/07/16 10:34:27;;;;;;;0.50;0.50;;;;;;;24.26;67.42;95576.31;4352133;32;20273;-64
2023/07/16 10:36:52;;;;;;;5.23;4.93;;;;;;;24.38;67.33;95572.53;4339594;32;20185;-64
2023/07/16 10:39:18;;;;;;;1.37;1.37;;;;;;;24.39;66.79;95568.66;4351912;32;20215;-64
2023/07/16 10:41:44;;;;;;;4.37;1.50;;;;;;;24.33;67.24;95563.59;4351097;32;20189;-64
2023/07/16 10:44:11;;;;;;;1.07;1.03;;;;;;;24.31;66.45;95554.28;4344732;32;20236;-64
2023/07/16 10:46:37;;;;;;;1.33;0.57;;;;;;;24.29;66.36;95556.59;4349736;32;20193;-63
2023/07/16 10:49:02;;;;;;;0.67;0.67;;;;;;;24.31;67.04;95565.13;4354830;32;20215;-64
2023/07/16 10:51:28;;;;;;;0.30;0.30;;;;;;;24.31;67.31;95559.72;4345251;32;20256;-64
2023/07/16 10:53:57;;;;;;;0.70;0.70;;;;;;;24.31;67.58;95559.72;4347041;32;20205;-64
2023/07/16 10:56:22;;;;;;;0.30;0.30;;;;;;;24.32;67.48;95562.03;4349000;32;20201;-64
2023/07/16 10:58:48;;;;;;;1.23;0.60;;;;;;;24.43;65.79;95555.91;4354415;32;20252;-64
2023/07/16 11:01:14;;;;;;;0.50;0.50;;;;;;;24.40;66.07;95553.94;4348197;32;20201;-64
2023/07/16 11:03:40;;;;;;;0.30;0.30;;;;;;;24.46;65.57;95560.59;4336990;32;20225;-64
2023/07/16 11:06:07;;;;;;;0.40;0.40;;;;;;;24.57;64.12;95550.59;4342807;32;20205;-64
2023/07/16 11:08:32;;;;;;;0.27;0.27;;;;;;;24.54;64.54;95549.41;4361262;32;20201;-64
2023/07/16 11:10:58;;;;;;;0.57;0.57;;;;;;;24.54;64.57;95562.97;4352965;32;20215;-64
2023/07/16 11:13:31;;;;;;;0.30;0.30;;;;;;;24.46;65.66;95555.16;4347213;32;20201;-64
2023/07/16 11:15:57;;;;;;;0.80;0.80;;;;;;;24.44;67.40;95552.84;4337543;32;20279;-64
2023/07/16 11:18:26;;;;;;;0.30;0.30;;;;;;;24.43;66.94;95556.69;4354875;32;20213;-64
2023/07/16 11:20:52;;;;;;;0.60;0.60;;;;;;;24.47;66.00;95554.00;4351186;32;20216;-64
2023/07/16 11:23:18;;;;;;;1.00;1.00;;;;;;;24.49;66.16;95557.91;4343705;32;20201;-64
2023/07/16 11:25:47;;;;;;;0.27;0.27;;;;;;;24.43;67.04;95550.50;4339997;32;20247;-65
2023/07/16 11:28:13;;;;;;;2.70;2.60;;;;;;;24.30;66.74;95541.87;4336696;32;20208;-64